McCall, ID

2:34 AM MDT on September 20, 2014 (GMT -0600)
ITD Goose Creek Grade ID US | Change Station
CLOSE
Current Station
Personal Weather Station
Location: McCall, ID
Elevation: 5416 ft
Nearby Weather Stations

Elev 5416 ft 44.93 °N, 116.16 °W | Updated 49 minutes ago

Clear
Clear
53 °F
Feels Like 53 °F
N
1
Wind Variable Wind from West
Gusts 2.0 mph

Today
High -- | Low -- °F
--% Chance of Precip.
Yesterday
High -- | Low -- °F
Precip. -- in
7:29 AM 7:45 PM
Waning Crescent, 13% visible
Pressure 30.09 in
Visibility 10.0 miles
Clouds Clear
Dew Point 44 °F
Humidity 72%
Rainfall 0.00 in
Snow Depth Not available.
UV 0 out of 12
Pollen 7.90 out of 12
Air Quality Not available.
Flu Activity Not available.
METAR KMYL 200751Z AUTO 33004KT 10SM CLR 10/06 A3019 RMK AO2 SLP189 T01000061

More Conditions Fewer Conditions

Pressure 30.09 in
Visibility 10.0 miles
Clouds Clear
Dew Point 44 °F
Humidity 72%
Rainfall 0.00 in
Snow Depth Not available.
UV 0 out of 12
Pollen 7.90 out of 12
Air Quality Not available.
Flu Activity Not available.
METAR KMYL 200751Z AUTO 33004KT 10SM CLR 10/06 A3019 RMK AO2 SLP189 T01000061

More Conditions Fewer Conditions

10-Day Weather Forecast

Almanac

Astronomy

Sep. 20, 2014 Rise Set
Actual Time 7:29 AM MDT 7:45 PM MDT
Civil Twilight 6:59 AM MDT 8:14 PM MDT
Nautical Twilight 6:25 AM MDT 8:49 PM MDT
Astronomical Twilight 5:49 AM MDT 9:24 PM MDT
Moon 4:05 AM MDT 5:57 PM MDT
Length of Visible Light 13h 14m
Length of Day
12h 16m
Tomorrow will be 3m 7s shorter.
Waning Crescent, 13% of the Moon is Illuminated
Today
Waning Crescent
Sep 24
New
Oct 1
First Quarter
Oct 8
Full
Oct 15
Last Quarter

Today's Extremes

State Highs State Lows

Community

WunderPhotos

Upload Photos

1,754,793 photos uploaded!

WunderBlogs® & News

Nearby

Snow Depth

Station Depth Elevation
Mica Creek 1 in 4750 ft
Sheep Mountain 0 in 6570 ft
Bogus Basin 0 in 6340 ft
Deadwood Summit 0 in 6860 ft
Franklin Basin 3 in 8170 ft

Earthquake Activity

City Distance Mag. Time & Date
No recent earthquake activity has been reported nearby.
Minimum magnitude displayed is 2.5.

Coastal Water Temperatures

Place Temperature
No Stations Reporting

Nearby Weather Stations